SVMI METAR and TAF | Updated Today

SVMI METAR

Simón Bolívar International Airport

Observation time: 15 min. ago

SVMI 292103Z AUTO 04004KT NCD ///// Q1008

Need help? Read our tutorial on how to read METARs or read the parsed version below.

Simón Bolívar International Airport (SVMI) METAR

  • Weather conditions on Thu, 29 Sep 2022 21:03:00 +0000 (15 min. ago):
  • Present conditions:
  • Clouds: Nil cloud detected
  • Visibility:
  • Wind: 40 degrees at 4 knots
  • Temperature: celsius
  • Dew point: celsius
  • Pressure: 1008 millibars
  • Remarks: None


Useful to know...

SVMI TAF

Simón Bolívar International Airport

TAF SVMI 291600Z 2918/3018 00000KT 9999 SCT016 TX32/2918Z TN23/3007Z TEMPO 2918/2922 09005KT 9000 -DZ FEW016 SCT100
Observation time: 5:18 hr. ago
Need help? Read our tutorial on how to read TAFs or read the parsed version below.

Parsed version of TAF for Simón Bolívar International Airport (SVMI)

  • From 29 September at 18:00 UTC, to day 30 of the month at 18:00 UTC
  • Clouds: Scattered at 488 meters
  • Visibility: Greater than 10 km
  • Expected to arise temporarily, from 29 September at 18:00 UTC, to day 29 of the month at 22:00 UTC
  • Clouds: A few at 488 meters; scattered at 3048 meters
  • Visibility: 9000 meters
  • Wind: 90 degrees at 5
  • Other: Light drizzle

Airports near SVMI